McAlisterville, Pennsylvania
Current Conditions -  °F | °C
As of 9:53 PM on Wednesday 26 Nov 2014 (Local Time) from KSEG Reporting Station
Broken Clouds Broken Clouds  
Wind Chill: 26°   Ceiling: 12000
Heat Index: 32°   Visibility: 10mi
Dew Point: 29°   Wind: 6mph
Humidity: 88%   Direction: 320°NW
Pressure: 29.96"   Gusts: NA
Location:  40.64°N, 77.27°W
Report Text: KSEG 270253Z AUTO 32005KT 10SM FEW045 BKN120 00/M02 A2996 RMK AO2 SLP149 60001 T00001017 55008
Loading
Personal Weather Stations






























Interactive Weather Map New forecast layout! Learn more

10-Day Weather Forecast

Advertisements
Track Severe Weather on mobile